Time;durP1;ratioP1;P1;durP2;ratioP2;P2;SDS_P1;SDS_P2;PMS_P1;PMS_P2;Temp;Humidity;BMP_temperature;BMP_pressure;BME280_temperature;BME280_humidity;BME280_pressure;Samples;Min_cycle;Max_cycle;Signal;HPM_P1;HPM_P2
2023/07/23 00:01:33;;;;;;;2.92;1.95;;;20.70;81.30;;;21.20;72.57;100418.41;5216300;28;20128;-51
2023/07/23 00:04:05;;;;;;;4.25;1.98;;;20.70;81.10;;;21.20;73.00;100419.28;5216200;28;20140;-52
2023/07/23 00:06:38;;;;;;;3.55;1.92;;;20.70;81.50;;;21.20;72.71;100414.00;5216342;28;20038;-52
2023/07/23 00:09:11;;;;;;;4.40;2.35;;;20.80;81.40;;;21.16;72.48;100412.28;5216236;28;20046;-52
2023/07/23 00:11:44;;;;;;;3.75;2.00;;;20.70;81.10;;;21.14;72.68;100408.78;5216193;28;20075;-52
2023/07/23 00:14:17;;;;;;;4.15;1.98;;;20.70;81.30;;;21.13;72.97;100412.31;5216343;28;20143;-51
2023/07/23 00:16:49;;;;;;;4.07;2.00;;;20.70;81.70;;;21.13;73.08;100407.91;5217917;28;20045;-51
2023/07/23 00:19:23;;;;;;;3.28;1.85;;;20.70;81.70;;;21.12;73.32;100402.59;5239759;28;20502;-52
2023/07/23 00:21:55;;;;;;;4.03;2.00;;;20.70;82.00;;;21.10;73.30;100393.81;5215408;28;20056;-48
2023/07/23 00:24:28;;;;;;;4.05;2.38;;;20.70;82.00;;;21.08;73.75;100393.84;5207565;28;20406;-48
2023/07/23 00:27:02;;;;;;;3.15;2.05;;;20.70;82.30;;;21.08;75.02;100388.53;5214864;28;20511;-49
2023/07/23 00:29:34;;;;;;;5.25;2.50;;;20.60;83.30;;;21.05;75.02;100391.22;5227969;28;20041;-48
2023/07/23 00:32:07;;;;;;;3.45;2.25;;;20.60;83.40;;;21.03;75.52;100379.78;5221735;28;20052;-49
2023/07/23 00:34:40;;;;;;;4.03;2.10;;;20.60;83.80;;;21.01;75.89;100376.28;5223597;28;20047;-49
2023/07/23 00:37:12;;;;;;;4.13;2.28;;;20.50;84.10;;;20.99;75.79;100372.75;5222240;28;20055;-48
2023/07/23 00:39:49;;;;;;;3.70;1.88;;;20.50;84.20;;;20.97;75.83;100368.38;5217133;28;20052;-48
2023/07/23 00:42:23;;;;;;;3.53;2.13;;;20.50;84.20;;;20.96;75.59;100362.22;5230527;28;20525;-49
2023/07/23 00:44:55;;;;;;;5.22;2.50;;;20.50;84.20;;;20.94;75.31;100368.44;5216241;28;20062;-48
2023/07/23 00:47:28;;;;;;;4.47;2.38;;;20.50;84.00;;;20.92;74.94;100364.91;5219123;28;20041;-48
2023/07/23 00:50:00;;;;;;;4.85;2.00;;;20.50;83.80;;;20.89;74.62;100365.84;5227462;28;20045;-49
2023/07/23 00:52:33;;;;;;;3.80;2.13;;;20.40;83.60;;;20.88;74.69;100363.22;5202724;28;20041;-48
2023/07/23 00:55:07;;;;;;;3.92;2.35;;;20.40;83.60;;;20.90;74.62;100362.31;5227650;28;20429;-48
2023/07/23 00:57:46;;;;;;;4.57;2.38;;;20.40;83.60;;;20.91;74.83;100352.56;5225315;28;20095;-50
2023/07/23 01:00:18;;;;;;;3.25;2.10;;;20.40;83.80;;;20.91;74.91;100352.56;5204095;28;20144;-48
2023/07/23 01:02:50;;;;;;;3.47;1.90;;;20.40;84.00;;;20.92;74.73;100346.38;5227264;28;20052;-48
2023/07/23 01:05:24;;;;;;;4.00;2.15;;;20.50;83.90;;;20.92;74.41;100349.91;5230656;28;20503;-48
2023/07/23 01:07:58;;;;;;;4.07;2.38;;;20.40;83.70;;;20.91;74.22;100342.84;5207501;28;20049;-48
2023/07/23 01:10:32;;;;;;;4.60;2.13;;;20.40;83.60;;;20.90;74.07;100341.09;5238929;28;20348;-48
2023/07/23 01:13:06;;;;;;;4.00;2.13;;;20.40;83.60;;;20.90;74.20;100337.59;5222749;28;20041;-49
2023/07/23 01:15:40;;;;;;;4.70;2.63;;;20.40;83.60;;;20.88;74.08;100339.41;5223185;28;20041;-48
2023/07/23 01:18:13;;;;;;;4.03;2.30;;;20.40;83.50;;;20.86;74.26;100329.69;5220691;28;20445;-49
2023/07/23 01:20:46;;;;;;;4.13;2.25;;;20.40;83.70;;;20.88;74.11;100328.78;5230048;28;20115;-48
2023/07/23 01:23:20;;;;;;;4.25;2.53;;;20.40;83.60;;;20.88;74.12;100328.78;5206107;28;20091;-48
2023/07/23 01:25:52;;;;;;;4.30;2.35;;;20.40;83.60;;;20.86;73.93;100329.69;5213648;28;20065;-48
2023/07/23 01:28:25;;;;;;;3.90;2.30;;;20.40;83.60;;;20.85;73.78;100319.97;5229529;28;20048;-48
2023/07/23 01:30:57;;;;;;;5.40;2.53;;;20.40;83.50;;;20.85;73.72;100317.31;5215386;28;20224;-49
2023/07/23 01:33:30;;;;;;;3.90;2.30;;;20.40;83.50;;;20.88;73.74;100310.25;5238497;28;20041;-48
2023/07/23 01:36:03;;;;;;;5.70;2.72;;;20.40;83.50;;;20.89;73.58;100312.00;5223908;28;20116;-48
2023/07/23 01:38:37;;;;;;;4.07;2.35;;;20.40;83.40;;;20.86;73.44;100305.84;5217456;28;20068;-48
2023/07/23 01:41:10;;;;;;;5.47;2.70;;;20.40;83.30;;;20.86;73.22;100308.50;5222574;28;20072;-48
2023/07/23 01:43:43;;;;;;;4.00;2.58;;;20.40;83.10;;;20.89;72.95;100307.56;5221725;28;20075;-48
2023/07/23 01:46:15;;;;;;;8.23;3.80;;;20.40;83.00;;;20.85;72.35;100300.56;5221775;28;20054;-48
2023/07/23 01:48:48;;;;;;;6.65;3.40;;;20.40;82.50;;;20.85;72.47;100298.78;5222693;28;20041;-48
2023/07/23 01:51:20;;;;;;;5.20;2.72;;;20.40;82.60;;;20.85;72.56;100295.25;5221627;28;20095;-48
2023/07/23 01:53:54;;;;;;;5.60;2.95;;;20.40;82.50;;;20.82;72.44;100284.72;5222516;28;20049;-48
2023/07/23 01:56:26;;;;;;;5.32;2.67;;;20.40;82.50;;;20.83;72.33;100284.69;5222055;28;20140;-48
2023/07/23 01:58:59;;;;;;;5.22;2.78;;;20.40;82.50;;;20.84;72.44;100278.50;5222438;28;20041;-48
2023/07/23 02:01:35;;;;;;;4.03;2.60;;;20.40;82.50;;;20.85;72.29;100280.25;5221668;28;20048;-48
2023/07/23 02:04:08;;;;;;;5.38;3.03;;;20.40;82.40;;;20.82;72.17;100275.00;5221933;28;20098;-48
2023/07/23 02:06:40;;;;;;;5.32;2.85;;;20.40;82.30;;;20.85;71.97;100279.38;5222118;28;20136;-48
2023/07/23 02:09:14;;;;;;;4.57;2.78;;;20.40;82.10;;;20.83;71.90;100268.81;5221759;28;20105;-48
2023/07/23 02:11:46;;;;;;;4.35;2.58;;;20.40;82.10;;;20.81;71.78;100267.97;5221752;28;20041;-48
2023/07/23 02:14:19;;;;;;;4.72;2.78;;;20.40;82.00;;;20.80;71.81;100267.97;5221723;28;20060;-48
2023/07/23 02:16:51;;;;;;;4.88;2.92;;;20.40;82.00;;;20.80;71.93;100262.66;5222107;28;20528;-48
2023/07/23 02:19:24;;;;;;;5.15;2.63;;;20.40;82.10;;;20.78;71.83;100254.75;5221794;28;20064;-49
2023/07/23 02:22:00;;;;;;;5.30;3.03;;;20.40;82.10;;;20.79;71.61;100251.19;5221576;28;20045;-49
2023/07/23 02:24:33;;;;;;;4.30;2.53;;;20.40;81.90;;;20.77;71.66;100247.72;5221691;28;20041;-49
2023/07/23 02:27:06;;;;;;;4.53;2.60;;;20.40;81.90;;;20.77;71.34;100250.34;5221809;28;20048;-49
2023/07/23 02:29:38;;;;;;;4.72;2.95;;;20.40;81.80;;;20.79;71.20;100248.53;5213427;28;20468;-48
2023/07/23 02:32:12;;;;;;;4.70;2.70;;;20.40;81.70;;;20.79;71.16;100248.53;5221049;28;20064;-48
2023/07/23 02:34:44;;;;;;;5.65;2.40;;;20.40;81.60;;;20.81;70.93;100245.91;5238546;28;20502;-48
2023/07/23 02:37:16;;;;;;;5.00;2.50;;;20.40;81.50;;;20.81;70.98;100246.78;5221093;28;20063;-48
2023/07/23 02:39:50;;;;;;;4.35;2.60;;;20.40;81.50;;;20.83;70.90;100246.75;5221768;28;20409;-48
2023/07/23 02:42:23;;;;;;;3.78;2.40;;;20.40;81.40;;;20.85;70.65;100242.28;5222254;28;20056;-48
2023/07/23 02:44:55;;;;;;;4.05;2.55;;;20.40;81.30;;;20.85;70.59;100240.50;5221792;28;20417;-49
2023/07/23 02:47:28;;;;;;;5.95;2.75;;;20.40;81.20;;;20.84;70.40;100245.84;5221164;28;20467;-48
2023/07/23 02:50:00;;;;;;;6.03;3.00;;;20.50;81.10;;;20.81;70.29;100235.31;5221491;28;20056;-48
2023/07/23 02:52:32;;;;;;;5.20;2.85;;;20.40;81.00;;;20.78;70.19;100241.50;5220668;28;20040;-48
2023/07/23 02:55:07;;;;;;;5.97;2.65;;;20.40;80.80;;;20.78;70.34;100236.22;5221337;28;20103;-48
2023/07/23 02:57:42;;;;;;;5.15;2.70;;;20.40;81.00;;;20.79;70.11;100232.66;5213254;28;20052;-48
2023/07/23 03:00:18;;;;;;;4.45;2.53;;;20.40;80.80;;;20.79;70.08;100231.78;5220927;28;20491;-48
2023/07/23 03:02:51;;;;;;;4.20;2.30;;;20.40;80.80;;;20.78;70.08;100230.91;5220669;28;20053;-48
2023/07/23 03:05:24;;;;;;;4.93;2.72;;;20.40;80.80;;;20.80;69.96;100238.81;5220893;28;20056;-49
2023/07/23 03:07:56;;;;;;;5.15;2.30;;;20.40;80.70;;;20.80;69.91;100238.81;5221027;28;20139;-48
2023/07/23 03:10:30;;;;;;;5.35;2.58;;;20.40;80.70;;;20.81;69.80;100238.81;5220733;28;20056;-48
2023/07/23 03:13:03;;;;;;;4.55;2.70;;;20.40;80.70;;;20.81;69.72;100236.19;5220892;28;20051;-49
2023/07/23 03:15:36;;;;;;;5.80;2.22;;;20.40;80.60;;;20.82;69.49;100239.69;5220850;28;20055;-48
2023/07/23 03:18:11;;;;;;;3.67;2.40;;;20.40;80.40;;;20.80;69.51;100237.09;5222859;28;20045;-48
2023/07/23 03:20:44;;;;;;;4.78;2.60;;;20.40;80.30;;;20.81;69.44;100236.19;5213246;28;20044;-48
2023/07/23 03:23:16;;;;;;;4.75;2.63;;;20.40;80.30;;;20.80;69.51;100231.78;5220549;28;20103;-48
2023/07/23 03:25:50;;;;;;;4.10;2.35;;;20.40;80.40;;;20.78;69.47;100236.22;5220984;28;20052;-48
2023/07/23 03:28:22;;;;;;;3.72;2.40;;;20.40;80.30;;;20.76;69.52;100231.84;5220574;28;20099;-48
2023/07/23 03:30:54;;;;;;;4.40;2.17;;;20.40;80.30;;;20.76;69.52;100245.09;5220909;28;20045;-48
2023/07/23 03:33:27;;;;;;;4.63;2.70;;;20.40;80.40;;;20.77;69.34;100237.13;5220503;28;20071;-48
2023/07/23 03:36:00;;;;;;;4.10;2.28;;;20.30;80.10;;;20.73;69.31;100238.03;5220880;28;20095;-49
2023/07/23 03:38:32;;;;;;;4.30;2.33;;;20.40;80.20;;;20.72;69.38;100235.44;5220428;28;20056;-48
2023/07/23 03:41:06;;;;;;;4.93;2.40;;;20.30;80.20;;;20.72;69.54;100240.72;5221027;28;20052;-48
2023/07/23 03:43:39;;;;;;;4.72;2.20;;;20.30;80.30;;;20.69;69.43;100231.06;5220376;28;20041;-48
2023/07/23 03:46:11;;;;;;;4.25;2.13;;;20.30;80.30;;;20.68;69.64;100236.41;5220929;28;20056;-48
2023/07/23 03:48:43;;;;;;;4.43;2.20;;;20.30;80.40;;;20.66;69.88;100238.16;5220638;28;20413;-48
2023/07/23 03:51:16;;;;;;;4.60;2.22;;;20.30;80.60;;;20.64;70.04;100238.19;5221194;28;20574;-48
2023/07/23 03:53:49;;;;;;;5.20;2.30;;;20.20;80.70;;;20.61;69.95;100243.56;5224327;28;20045;-48
2023/07/23 03:56:22;;;;;;;3.90;2.30;;;20.20;80.60;;;20.59;69.97;100240.91;5224345;28;20052;-48
2023/07/23 03:58:55;;;;;;;4.20;2.50;;;20.20;80.70;;;20.63;70.01;100241.75;5224648;28;20052;-48
2023/07/23 04:01:27;;;;;;;4.43;2.33;;;20.20;80.70;;;20.62;70.09;100237.34;5223972;28;20486;-49
2023/07/23 04:04:00;;;;;;;3.60;1.90;;;20.20;80.80;;;20.60;70.13;100233.84;5224645;28;20045;-48
2023/07/23 04:06:33;;;;;;;3.17;2.03;;;20.20;80.80;;;20.59;70.02;100232.09;5224285;28;20049;-48
2023/07/23 04:09:05;;;;;;;3.22;1.88;;;20.20;80.80;;;20.59;70.06;100229.44;5224488;28;20388;-49
2023/07/23 04:11:39;;;;;;;4.13;2.20;;;20.20;80.80;;;20.58;70.17;100233.88;5223848;28;20036;-48
2023/07/23 04:14:12;;;;;;;4.57;2.13;;;20.20;80.90;;;20.60;70.32;100236.50;5224460;28;20056;-48
2023/07/23 04:16:44;;;;;;;3.63;2.15;;;20.20;81.10;;;20.63;70.23;100235.59;5224011;28;20040;-48
2023/07/23 04:19:17;;;;;;;3.72;2.05;;;20.20;81.10;;;20.64;70.27;100229.38;5224158;28;20049;-48
2023/07/23 04:21:49;;;;;;;3.22;2.00;;;20.20;81.10;;;20.64;70.36;100226.75;5223946;28;20047;-48
2023/07/23 04:24:22;;;;;;;4.28;2.10;;;20.20;81.20;;;20.64;70.53;100227.59;5223781;28;20048;-48
2023/07/23 04:26:56;;;;;;;6.47;2.25;;;20.20;81.30;;;20.63;70.43;100220.56;5224257;28;20140;-49
2023/07/23 04:29:28;;;;;;;3.60;2.08;;;20.20;81.10;;;20.64;70.41;100226.75;5225481;28;20053;-49
2023/07/23 04:32:00;;;;;;;5.07;2.15;;;20.20;81.30;;;20.62;70.35;100232.06;5223684;28;20422;-49
2023/07/23 04:34:33;;;;;;;3.85;2.13;;;20.20;81.20;;;20.63;70.46;100230.28;5223940;28;20437;-48
2023/07/23 04:37:06;;;;;;;3.70;2.90;;;20.20;81.40;;;20.64;70.69;100232.03;5223859;28;20402;-48
2023/07/23 04:39:39;;;;;;;3.17;1.88;;;20.20;81.40;;;20.64;70.42;100232.03;5223719;28;20060;-48
2023/07/23 04:42:12;;;;;;;4.78;2.45;;;20.20;81.30;;;20.65;70.45;100228.47;5223589;28;20426;-48
2023/07/23 04:44:45;;;;;;;4.25;2.10;;;20.20;81.30;;;20.64;70.30;100226.75;5223715;28;20051;-48
2023/07/23 04:47:17;;;;;;;3.42;1.98;;;20.30;81.10;;;20.64;70.19;100221.44;5223362;28;20049;-48
2023/07/23 04:49:50;;;;;;;3.10;1.98;;;20.20;81.10;;;20.64;70.31;100222.31;5223630;28;20572;-48
2023/07/23 04:52:22;;;;;;;5.18;2.50;;;20.20;81.20;;;20.65;70.25;100229.34;5223099;28;20045;-48
2023/07/23 04:54:55;;;;;;;3.60;2.10;;;20.20;81.10;;;20.66;70.22;100219.63;5223762;28;20534;-48
2023/07/23 04:57:28;;;;;;;3.83;2.20;;;20.30;81.20;;;20.67;70.17;100219.63;5223320;28;20045;-48
2023/07/23 05:00:06;;;;;;;4.22;2.40;;;20.30;81.20;;;20.69;70.11;100225.78;5223294;28;20049;-48
2023/07/23 05:02:38;;;;;;;5.00;2.17;;;20.30;81.00;;;20.70;70.09;100222.22;5222088;28;20110;-48
2023/07/23 05:05:11;;;;;;;3.78;1.95;;;20.30;81.10;;;20.73;70.02;100226.59;5223562;28;20929;-49
2023/07/23 05:07:43;;;;;;;3.45;1.88;;;20.30;81.10;;;20.76;70.20;100226.56;5224355;28;20063;-49
2023/07/23 05:10:16;;;;;;;4.10;1.95;;;20.30;81.10;;;20.78;70.19;100224.75;5223076;28;20060;-48
2023/07/23 05:12:50;;;;;;;4.03;1.95;;;20.40;81.30;;;20.78;70.26;100225.63;5222808;28;20053;-48
2023/07/23 05:15:22;;;;;;;5.20;2.42;;;20.40;81.30;;;20.78;70.43;100220.31;5223315;28;20052;-48
2023/07/23 05:17:55;;;;;;;3.38;1.92;;;20.40;81.40;;;20.81;70.49;100220.28;5223337;28;20041;-48
2023/07/23 05:20:27;;;;;;;3.70;2.30;;;20.40;81.50;;;20.83;70.44;100217.59;5222365;28;20055;-48
2023/07/23 05:23:00;;;;;;;3.88;2.10;;;20.40;81.50;;;20.85;70.52;100216.66;5222754;28;20740;-48
2023/07/23 05:25:32;;;;;;;5.10;2.22;;;20.40;81.60;;;20.88;70.45;100221.06;5222846;28;20098;-48
2023/07/23 05:28:09;;;;;;;4.68;2.00;;;20.40;81.50;;;20.88;70.45;100218.41;5222818;28;20051;-48
2023/07/23 05:30:42;;;;;;;3.22;1.80;;;20.50;81.60;;;20.89;70.52;100222.81;5222633;28;20048;-49
2023/07/23 05:33:14;;;;;;;4.50;2.10;;;20.50;81.60;;;20.90;70.60;100219.25;5222546;28;20048;-49
2023/07/23 05:35:46;;;;;;;3.45;2.30;;;20.50;81.60;;;20.93;70.63;100223.59;5222726;28;20060;-48
2023/07/23 05:38:19;;;;;;;3.22;1.92;;;20.50;81.70;;;20.96;70.68;100224.44;5222414;28;20080;-49
2023/07/23 05:40:56;;;;;;;5.07;1.90;;;20.50;81.90;;;20.97;70.74;100226.19;5222503;28;20052;-48
2023/07/23 05:43:30;;;;;;;3.90;2.20;;;20.50;81.90;;;21.00;70.91;100226.16;5222163;28;20433;-49
2023/07/23 05:46:03;;;;;;;4.03;2.10;;;20.50;81.90;;;21.04;70.90;100221.66;5222552;28;20076;-49
2023/07/23 05:48:35;;;;;;;4.40;2.13;;;20.60;82.00;;;21.06;70.77;100220.75;5222048;28;20068;-48
2023/07/23 05:51:08;;;;;;;4.00;2.15;;;20.60;82.00;;;21.10;70.80;100221.56;5222402;28;20052;-48
2023/07/23 05:53:40;;;;;;;3.53;1.80;;;20.60;82.10;;;21.18;70.75;100224.94;5221148;28;20053;-48
2023/07/23 05:56:13;;;;;;;4.10;1.90;;;20.70;82.00;;;21.25;70.64;100236.31;5221740;28;20821;-50
2023/07/23 05:58:46;;;;;;;3.33;2.00;;;20.70;82.00;;;21.33;70.26;100224.72;5221866;28;20041;-50
2023/07/23 06:01:19;;;;;;;4.65;1.83;;;20.80;81.80;;;21.44;70.14;100226.28;5221910;28;20045;-49
2023/07/23 06:03:51;;;;;;;4.03;2.10;;;20.90;81.80;;;21.53;69.94;100226.13;5221521;28;20052;-49
2023/07/23 06:06:24;;;;;;;4.05;1.80;;;21.00;81.60;;;21.61;69.55;100221.53;5221422;28;20064;-49
2023/07/23 06:08:57;;;;;;;3.28;1.77;;;21.10;81.40;;;21.67;69.42;100219.66;5214265;28;20524;-48
2023/07/23 06:11:29;;;;;;;3.70;1.80;;;21.10;81.20;;;21.73;69.05;100218.66;5221499;28;20045;-49
2023/07/23 06:14:03;;;;;;;3.70;2.20;;;21.20;80.90;;;21.78;69.02;100215.88;5221678;28;20510;-48
2023/07/23 06:16:36;;;;;;;4.07;1.92;;;21.20;80.90;;;21.80;69.18;100225.59;5221299;28;20049;-49
2023/07/23 06:19:08;;;;;;;3.65;1.88;;;21.30;80.90;;;21.83;69.08;100221.97;5221121;28;20052;-48
2023/07/23 06:21:40;;;;;;;3.08;1.80;;;21.30;80.80;;;21.84;69.00;100219.31;5221140;28;20052;-49
2023/07/23 06:24:16;;;;;;;3.97;2.13;;;21.30;80.80;;;21.86;68.76;100214.84;5221456;28;20053;-48
2023/07/23 06:26:48;;;;;;;5.00;2.20;;;21.30;80.60;;;21.86;69.04;100220.16;5222013;28;20044;-49
2023/07/23 06:29:22;;;;;;;3.08;1.77;;;21.30;80.70;;;21.87;69.06;100219.25;5221768;28;20071;-48
2023/07/23 06:31:54;;;;;;;3.60;2.00;;;21.40;80.80;;;21.90;68.90;100216.50;5221311;28;20468;-49
2023/07/23 06:34:27;;;;;;;3.70;1.70;;;21.40;80.70;;;21.92;68.82;100214.72;5221268;28;20071;-48
2023/07/23 06:36:59;;;;;;;2.95;2.00;;;21.40;80.70;;;21.92;68.66;100225.34;5221562;28;20514;-48
2023/07/23 06:39:31;;;;;;;2.35;1.70;;;21.40;80.60;;;21.91;68.49;100218.28;5221142;28;20299;-49
2023/07/23 06:42:04;;;;;;;4.95;1.77;;;21.40;80.40;;;21.92;68.59;100224.47;5220817;28;20049;-48
2023/07/23 06:44:41;;;;;;;2.47;1.67;;;21.40;80.40;;;21.93;68.48;100221.78;5221152;28;20056;-49
2023/07/23 06:47:14;;;;;;;3.47;1.77;;;21.40;81.00;;;21.94;68.07;100222.63;5221165;28;20049;-49
2023/07/23 06:49:46;;;;;;;3.15;1.77;;;21.40;80.10;;;21.94;68.10;100220.84;5221120;28;20053;-49
2023/07/23 06:52:19;;;;;;;3.25;1.73;;;21.40;80.00;;;21.95;67.75;100227.91;5220876;28;20045;-49
2023/07/23 06:54:51;;;;;;;2.45;1.50;;;21.40;79.80;;;21.97;67.88;100225.22;5220898;28;20044;-49
2023/07/23 06:57:26;;;;;;;2.65;1.80;;;21.40;79.80;;;22.03;67.78;100232.19;5221430;28;20045;-47
2023/07/23 06:59:59;;;;;;;2.80;1.60;;;21.40;79.90;;;22.06;67.74;100234.78;5221491;28;20037;-48
2023/07/23 07:02:32;;;;;;;2.50;1.40;;;21.50;79.70;;;22.08;68.01;100230.31;5221238;28;20060;-49
2023/07/23 07:05:05;;;;;;;2.65;1.75;;;21.50;79.90;;;22.11;67.94;100232.94;5221804;28;20060;-48
2023/07/23 07:07:38;;;;;;;3.00;1.45;;;21.50;79.90;;;22.12;67.81;100237.34;5221218;28;20522;-49
2023/07/23 07:10:11;;;;;;;1.40;1.20;;;21.60;79.70;;;22.12;67.63;100247.97;5221310;28;20077;-48
2023/07/23 07:12:43;;;;;;;2.05;1.40;;;21.60;79.60;;;22.13;67.45;100244.41;5220743;28;20045;-48
2023/07/23 07:15:17;;;;;;;3.47;1.50;;;21.60;79.40;;;22.08;67.60;100246.22;5221261;28;20045;-48
2023/07/23 07:17:50;;;;;;;3.22;1.33;;;21.50;79.40;;;22.05;67.98;100241.88;5221028;28;20049;-48
2023/07/23 07:20:22;;;;;;;2.90;1.40;;;21.50;79.70;;;22.02;68.33;100238.41;5221492;28;20421;-48
2023/07/23 07:22:54;;;;;;;2.20;1.27;;;21.50;80.10;;;21.98;69.14;100255.31;5220848;28;20406;-49
2023/07/23 07:25:27;;;;;;;2.17;1.50;;;21.50;80.80;;;21.95;70.41;100251.78;5221220;28;20146;-48
2023/07/23 07:27:59;;;;;;;2.35;1.15;;;21.40;81.80;;;21.91;71.54;100250.13;5224896;28;20044;-48
2023/07/23 07:30:33;;;;;;;2.40;1.20;;;21.40;82.60;;;21.89;72.35;100251.91;5224971;28;20433;-48
2023/07/23 07:33:05;;;;;;;1.92;1.30;;;21.40;83.30;;;21.86;72.68;100257.28;5225496;28;20069;-48
2023/07/23 07:35:38;;;;;;;2.78;1.35;;;21.40;83.50;;;21.84;73.00;100260.88;5225454;28;20041;-48
2023/07/23 07:38:10;;;;;;;3.00;1.55;;;21.30;83.80;;;21.79;72.85;100255.66;5225180;28;20049;-49
2023/07/23 07:40:43;;;;;;;2.47;1.42;;;21.30;83.80;;;21.72;72.43;100256.69;5224643;28;20426;-48
2023/07/23 07:43:15;;;;;;;2.55;1.27;;;21.20;83.40;;;21.62;73.08;100263.06;5224664;28;20041;-48
2023/07/23 07:45:50;;;;;;;2.63;1.40;;;21.20;84.00;;;21.55;73.76;100250.84;5224751;28;20135;-48
2023/07/23 07:48:25;;;;;;;2.72;1.45;;;21.10;84.40;;;21.53;74.28;100255.28;5224895;28;20410;-48
2023/07/23 07:51:03;;;;;;;2.20;1.27;;;21.00;84.90;;;21.46;75.51;100251.88;5224898;28;20418;-49
2023/07/23 07:53:37;;;;;;;2.03;1.30;;;21.00;85.70;;;21.39;76.60;100259.06;5224398;28;20044;-49
2023/07/23 07:56:17;;;;;;;1.83;1.20;;;21.00;86.70;;;21.35;77.49;100257.38;5224725;28;20098;-48
2023/07/23 07:58:50;;;;;;;3.63;1.50;;;20.90;87.30;;;21.32;78.10;100257.44;5224423;28;20122;-48
2023/07/23 08:01:25;;;;;;;2.83;1.50;;;20.90;88.00;;;21.33;78.78;100259.19;5224691;28;20049;-48
2023/07/23 08:03:58;;;;;;;2.03;1.30;;;20.90;88.40;;;21.25;78.95;100273.41;5224509;28;20514;-49
2023/07/23 08:06:33;;;;;;;2.67;1.88;;;20.80;88.60;;;21.18;79.47;100270.00;5224956;28;20049;-48
2023/07/23 08:09:09;;;;;;;1.92;1.30;;;20.70;88.90;;;21.04;80.45;100253.47;5216899;28;20518;-49
2023/07/23 08:11:42;;;;;;;2.20;1.42;;;20.70;90.00;;;20.93;81.19;100261.59;5219923;28;20542;-50
2023/07/23 08:14:15;;;;;;;3.85;1.63;;;20.60;90.10;;;20.79;83.35;100264.44;5222216;28;20053;-47
2023/07/23 08:16:53;;;;;;;2.35;1.40;;;20.50;90.70;;;20.71;84.49;100260.16;5216634;28;20052;-46
2023/07/23 08:19:27;;;;;;;2.05;1.45;;;20.40;91.10;;;20.69;85.75;100261.97;5224238;28;20132;-50
2023/07/23 08:22:00;;;;;;;1.85;1.30;;;20.40;91.60;;;20.72;87.63;100260.13;5223032;28;20048;-48
2023/07/23 08:24:33;;;;;;;2.97;1.90;;;20.40;92.30;;;20.76;88.23;100274.22;5223367;28;20052;-48
2023/07/23 08:27:08;;;;;;;2.33;1.65;;;20.40;92.60;;;20.73;88.53;100267.19;5217494;28;20526;-47
2023/07/23 08:29:46;;;;;;;2.75;1.70;;;20.40;92.80;;;20.71;89.16;100271.63;5223931;28;20052;-46
2023/07/23 08:32:24;;;;;;;2.83;1.52;;;20.40;93.20;;;20.71;89.64;100271.63;5223251;28;20056;-45
2023/07/23 08:34:57;;;;;;;2.67;1.50;;;20.40;93.30;;;20.71;90.17;100278.72;5223141;28;20439;-45
2023/07/23 08:37:30;;;;;;;2.60;1.60;;;20.40;93.80;;;20.75;91.26;100278.66;5223347;28;20051;-46
2023/07/23 08:40:03;;;;;;;3.80;1.70;;;20.40;94.30;;;20.67;90.85;100280.53;5223326;28;20545;-45
2023/07/23 08:43:29;;;;;;;4.15;1.80;;;20.30;94.40;;;20.56;92.69;100282.47;5222050;28;20037;-46
2023/07/23 08:46:23;;;;;;;;;;;20.30;94.80;;;20.55;93.58;100288.66;5153454;28;20385;-46
2023/07/23 08:49:09;;;;;;;3.28;1.65;;;20.30;95.40;;;20.57;94.27;100287.72;5222447;28;19964;-46
2023/07/23 08:51:44;;;;;;;2.80;1.42;;;20.30;95.90;;;20.59;95.08;100293.88;5222235;28;20053;-48
2023/07/23 08:54:19;;;;;;;2.65;1.60;;;20.20;96.30;;;20.59;95.51;100293.00;5223234;28;20049;-46
2023/07/23 08:56:53;;;;;;;2.97;1.95;;;20.20;96.50;;;20.54;96.39;100289.56;5223049;28;20521;-45
2023/07/23 08:59:26;;;;;;;3.22;1.73;;;20.20;97.10;;;20.46;97.40;100286.13;5222850;28;20053;-45
2023/07/23 09:01:59;;;;;;;2.88;1.80;;;20.10;97.50;;;20.48;97.94;100289.63;5222433;28;20052;-45
2023/07/23 09:04:36;;;;;;;2.85;1.70;;;20.10;97.80;;;20.50;98.48;100287.84;5223334;28;20071;-47
2023/07/23 09:07:11;;;;;;;2.63;1.60;;;20.10;98.30;;;20.51;99.03;100273.69;5222782;28;20045;-44
2023/07/23 09:09:43;;;;;;;2.60;1.58;;;20.20;98.70;;;20.51;97.96;100281.66;5222724;28;20803;-45
2023/07/23 09:12:17;;;;;;;2.50;1.40;;;20.20;98.70;;;20.53;99.89;100283.34;5222612;28;20041;-45
2023/07/23 09:14:52;;;;;;;4.07;1.85;;;20.20;99.50;;;20.53;100.00;100283.34;5222548;28;20053;-45
2023/07/23 09:17:25;;;;;;;3.65;1.80;;;20.20;99.90;;;20.51;100.00;100279.88;5222862;28;20148;-45
2023/07/23 09:19:59;;;;;;;3.45;2.20;;;20.20;99.90;;;20.51;100.00;100274.56;5220594;28;20052;-45
2023/07/23 09:22:32;;;;;;;3.10;1.65;;;20.20;99.90;;;20.48;100.00;100263.16;5222104;28;20307;-45
2023/07/23 09:25:06;;;;;;;3.53;2.05;;;20.20;99.90;;;20.54;100.00;100268.38;5222473;28;20045;-45
2023/07/23 09:27:39;;;;;;;2.92;1.85;;;20.20;99.90;;;20.57;100.00;100276.25;5222525;28;20041;-44
2023/07/23 09:30:19;;;;;;;3.03;1.73;;;20.20;99.90;;;20.58;100.00;100270.06;5239351;28;20045;-45
2023/07/23 09:32:58;;;;;;;2.80;1.70;;;20.20;99.90;;;20.59;100.00;100271.81;5221336;28;20084;-45
2023/07/23 09:35:32;;;;;;;2.92;1.60;;;20.20;99.90;;;20.62;100.00;100271.78;5222390;28;20053;-46
2023/07/23 09:38:04;;;;;;;3.33;1.63;;;20.30;99.90;;;20.66;100.00;100270.81;5221703;28;20091;-45
2023/07/23 09:40:39;;;;;;;4.90;2.20;;;20.30;99.90;;;20.69;100.00;100268.16;5222355;28;20049;-46
2023/07/23 09:43:13;;;;;;;4.72;1.55;;;20.30;99.90;;;20.61;100.00;100264.75;5213718;28;20072;-45
2023/07/23 09:45:46;;;;;;;;;;;20.30;99.90;;;20.58;100.00;100262.13;5222362;28;20091;-44
2023/07/23 09:48:19;;;;;;;3.40;2.00;;;20.30;99.90;;;20.60;100.00;100268.25;5221897;28;20363;-45
2023/07/23 09:50:58;;;;;;;4.30;2.13;;;20.30;99.90;;;20.60;100.00;100278.84;5221056;28;20406;-45
2023/07/23 09:53:31;;;;;;;3.30;1.60;;;20.20;99.90;;;20.61;100.00;100275.34;5221842;28;20092;-44
2023/07/23 09:56:04;;;;;;;2.95;1.80;;;20.30;99.90;;;20.72;100.00;100277.81;5221664;28;20045;-45
2023/07/23 09:58:38;;;;;;;3.15;1.70;;;20.30;99.90;;;20.80;100.00;100270.59;5222498;28;20422;-44
2023/07/23 10:01:11;;;;;;;3.08;1.90;;;20.40;99.90;;;20.91;100.00;100273.09;5221651;28;20131;-45
2023/07/23 10:03:44;;;;;;;2.65;1.67;;;20.50;99.90;;;20.97;100.00;100275.66;5221212;28;20102;-45
2023/07/23 10:06:22;;;;;;;2.83;1.80;;;20.50;99.90;;;21.03;100.00;100283.50;5222013;28;20056;-45
2023/07/23 10:08:58;;;;;;;3.22;1.83;;;20.60;99.90;;;21.08;100.00;100286.97;5221040;28;20525;-45
2023/07/23 10:11:31;;;;;;;2.83;1.60;;;20.60;99.90;;;21.12;100.00;100291.28;5221351;28;20058;-45
2023/07/23 10:14:03;;;;;;;2.85;1.50;;;20.70;99.90;;;21.15;99.03;100299.22;5221117;28;20052;-45
2023/07/23 10:16:42;;;;;;;2.95;1.70;;;20.70;99.90;;;21.13;97.81;100296.59;5221306;28;20095;-45
2023/07/23 10:19:15;;;;;;;2.70;1.58;;;20.70;99.90;;;21.13;98.06;100290.44;5213897;28;20548;-45
2023/07/23 10:21:50;;;;;;;2.75;1.67;;;20.70;99.90;;;21.10;97.43;100301.94;5220679;28;20049;-45
2023/07/23 10:24:22;;;;;;;3.20;1.58;;;20.70;99.90;;;21.07;99.42;100303.78;5221074;28;20049;-45
2023/07/23 10:26:58;;;;;;;2.95;1.90;;;20.60;99.90;;;21.05;100.00;100300.25;5221042;28;20059;-46
2023/07/23 10:29:30;;;;;;;3.25;1.45;;;20.60;99.90;;;21.03;100.00;100310.00;5220757;28;20044;-45
2023/07/23 10:32:24;;;;;;;3.78;1.90;;;20.60;99.90;;;20.95;99.71;100315.44;5232004;28;20067;-44
2023/07/23 10:35:00;;;;;;;3.58;1.65;;;20.50;99.90;;;20.95;99.46;100303.97;5220036;28;20087;-44
2023/07/23 10:37:33;;;;;;;2.72;1.60;;;20.60;99.90;;;20.92;100.00;100301.34;5220946;28;20418;-45
2023/07/23 10:40:07;;;;;;;2.17;1.30;;;20.50;99.90;;;20.91;100.00;100310.19;5220491;28;20510;-45